createdAt,value
2019-02-27T00:01:07.678Z,28.93
2019-02-27T00:03:39.057Z,28.97
2019-02-27T00:06:16.049Z,29.87
2019-02-27T00:08:46.239Z,29.67
2019-02-27T00:11:16.199Z,30.43
2019-02-27T00:13:46.238Z,31.77
2019-02-27T00:16:16.162Z,32.43
2019-02-27T00:18:46.359Z,32.67
2019-02-27T00:21:16.187Z,34.37
2019-02-27T00:23:46.086Z,34.73
2019-02-27T00:26:16.027Z,35.97
2019-02-27T00:28:46.061Z,36.37
2019-02-27T00:31:17.520Z,34.23
2019-02-27T00:33:47.765Z,35.60
2019-02-27T00:36:18.865Z,36.63
2019-02-27T00:38:50.265Z,35.40
2019-02-27T00:41:20.593Z,34.93
2019-02-27T00:43:50.532Z,34.83
2019-02-27T00:46:20.480Z,35.33
2019-02-27T00:48:50.454Z,34.83
2019-02-27T00:51:20.382Z,35.07
2019-02-27T00:53:50.378Z,35.97
2019-02-27T00:56:20.403Z,34.70
2019-02-27T00:58:50.468Z,37.90
2019-02-27T01:01:20.378Z,36.47
2019-02-27T01:03:50.702Z,36.43
2019-02-27T01:06:20.685Z,37.77
2019-02-27T01:08:50.684Z,37.93
2019-02-27T01:11:20.687Z,37.27
2019-02-27T01:13:50.664Z,37.73
2019-02-27T01:16:20.601Z,37.47
2019-02-27T01:18:53.136Z,37.20
2019-02-27T01:21:23.144Z,37.37
2019-02-27T01:23:53.113Z,37.17
2019-02-27T01:26:23.137Z,35.90
2019-02-27T01:28:53.098Z,36.60
2019-02-27T01:31:24.032Z,38.73
2019-02-27T01:33:54.594Z,39.20
2019-02-27T01:36:25.254Z,39.00
2019-02-27T01:38:56.543Z,40.30
2019-02-27T01:41:26.541Z,40.43
2019-02-27T01:43:56.571Z,37.53
2019-02-27T01:46:27.766Z,40.80
2019-02-27T01:48:58.442Z,40.90
2019-02-27T01:51:28.927Z,41.97
2019-02-27T01:53:58.954Z,40.83
2019-02-27T01:56:29.625Z,40.23
2019-02-27T01:58:59.848Z,41.00
2019-02-27T02:01:30.233Z,41.27
2019-02-27T02:04:00.879Z,40.67
2019-02-27T02:06:32.499Z,41.30
2019-02-27T02:09:11.716Z,41.40
2019-02-27T02:11:41.764Z,40.33
2019-02-27T02:14:23.560Z,42.50
2019-02-27T02:17:00.156Z,39.87
2019-02-27T02:19:41.937Z,42.67
2019-02-27T02:22:23.121Z,45.27
2019-02-27T02:25:09.133Z,42.47
2019-02-27T02:28:00.303Z,40.93
2019-02-27T02:30:45.205Z,37.50
2019-02-27T02:33:30.482Z,37.37
2019-02-27T02:36:26.390Z,37.23
2019-02-27T02:39:21.717Z,36.53
2019-02-27T02:41:56.245Z,34.63
2019-02-27T02:44:40.949Z,33.90
2019-02-27T02:47:31.822Z,32.87
2019-02-27T02:50:39.357Z,35.00
2019-02-27T02:53:37.986Z,32.33
2019-02-27T02:56:13.373Z,32.17
2019-02-27T02:59:02.650Z,32.43
2019-02-27T03:01:35.529Z,33.33
2019-02-27T03:04:34.400Z,34.57
2019-02-27T03:07:10.868Z,32.83
2019-02-27T03:10:08.459Z,32.60
2019-02-27T03:13:05.820Z,35.00
2019-02-27T03:15:36.710Z,34.57
2019-02-27T03:18:15.233Z,35.10
2019-02-27T03:20:51.880Z,35.13
2019-02-27T03:23:25.316Z,34.50
2019-02-27T03:26:16.477Z,34.33
2019-02-27T03:28:56.430Z,34.10
2019-02-27T03:31:32.282Z,34.40
2019-02-27T03:34:23.046Z,34.53
2019-02-27T03:37:24.947Z,33.23
2019-02-27T03:40:14.700Z,34.80
2019-02-27T03:42:47.678Z,34.40
2019-02-27T03:45:40.027Z,33.50
2019-02-27T03:48:15.777Z,32.33
2019-02-27T03:50:51.513Z,34.57
2019-02-27T03:53:27.401Z,34.13
2019-02-27T03:56:24.739Z,32.80
2019-02-27T03:59:07.457Z,33.73
2019-02-27T04:01:52.476Z,34.33
2019-02-27T04:04:31.151Z,34.07
2019-02-27T04:07:20.180Z,34.23
2019-02-27T04:09:54.831Z,35.40
2019-02-27T04:12:22.203Z,33.17
2019-02-27T04:14:52.203Z,32.50
2019-02-27T04:17:29.966Z,33.17
2019-02-27T04:20:01.854Z,32.27
2019-02-27T04:22:36.267Z,31.47
2019-02-27T04:25:03.730Z,30.80
2019-02-27T04:27:33.635Z,30.50
2019-02-27T04:30:04.600Z,31.20
2019-02-27T04:32:35.096Z,29.97
2019-02-27T04:35:06.881Z,30.00
2019-02-27T04:37:36.982Z,28.70
2019-02-27T04:40:10.878Z,29.10
2019-02-27T04:42:40.293Z,28.13
2019-02-27T04:45:12.437Z,27.40
2019-02-27T04:47:42.991Z,28.27
2019-02-27T04:50:12.919Z,26.53
2019-02-27T04:52:42.829Z,26.40
2019-02-27T04:55:13.077Z,25.80
2019-02-27T04:57:44.380Z,25.23
2019-02-27T05:00:14.412Z,25.43
2019-02-27T05:02:44.328Z,25.30
2019-02-27T05:05:14.294Z,24.73
2019-02-27T05:07:44.134Z,26.37
2019-02-27T05:10:14.121Z,26.23
2019-02-27T05:12:47.857Z,26.10
2019-02-27T05:15:15.529Z,26.13
2019-02-27T05:17:45.646Z,27.13
2019-02-27T05:20:15.599Z,26.77
2019-02-27T05:22:45.559Z,27.27
2019-02-27T05:25:15.476Z,28.20
2019-02-27T05:27:45.345Z,30.93
2019-02-27T05:30:15.193Z,30.50
2019-02-27T05:32:46.334Z,32.30
2019-02-27T05:35:16.163Z,30.87
2019-02-27T05:37:46.102Z,33.27
2019-02-27T05:40:16.083Z,34.07
2019-02-27T05:42:45.961Z,35.80
2019-02-27T05:45:16.001Z,37.53
2019-02-27T05:47:46.061Z,37.00
2019-02-27T05:50:16.039Z,36.90
2019-02-27T05:52:48.777Z,37.13
2019-02-27T05:55:18.655Z,38.73
2019-02-27T05:57:48.596Z,39.73
2019-02-27T06:00:20.397Z,41.13
2019-02-27T06:02:50.370Z,40.20
2019-02-27T06:05:20.262Z,42.40
2019-02-27T06:07:50.352Z,43.70
2019-02-27T06:10:21.140Z,41.17
2019-02-27T06:12:52.038Z,41.63
2019-02-27T06:15:21.954Z,42.00
2019-02-27T06:17:51.986Z,42.33
2019-02-27T06:20:21.906Z,36.13
2019-02-27T06:22:53.351Z,41.13
2019-02-27T06:25:24.051Z,37.90
2019-02-27T06:27:54.089Z,37.80
2019-02-27T06:30:24.193Z,35.57
2019-02-27T06:32:54.119Z,36.17
2019-02-27T06:35:24.082Z,34.00
2019-02-27T06:37:54.048Z,34.00
2019-02-27T06:40:23.967Z,35.37
2019-02-27T06:42:54.798Z,32.83
2019-02-27T06:45:25.896Z,36.20
2019-02-27T06:47:55.828Z,35.07
2019-02-27T06:50:26.114Z,35.23
2019-02-27T06:52:56.066Z,34.37
2019-02-27T06:55:28.109Z,33.87
2019-02-27T06:57:57.574Z,35.13
2019-02-27T07:00:27.538Z,35.40
2019-02-27T07:02:57.408Z,31.07
2019-02-27T07:05:27.405Z,32.13
2019-02-27T07:07:57.389Z,28.60
2019-02-27T07:10:27.403Z,31.03
2019-02-27T07:12:57.407Z,29.63
2019-02-27T07:15:27.344Z,29.83
2019-02-27T07:17:57.338Z,27.20
2019-02-27T07:20:27.422Z,27.50
2019-02-27T07:22:57.264Z,27.70
2019-02-27T07:25:27.978Z,26.33
2019-02-27T07:27:58.099Z,26.90
2019-02-27T07:30:28.094Z,27.90
2019-02-27T07:32:58.044Z,27.43
2019-02-27T07:35:29.266Z,26.90
2019-02-27T07:37:59.384Z,28.27
2019-02-27T07:40:29.279Z,30.10
2019-02-27T07:42:59.194Z,30.37
2019-02-27T07:45:29.154Z,30.47
2019-02-27T07:47:59.063Z,30.40
2019-02-27T07:50:29.106Z,30.60
2019-02-27T07:52:59.081Z,28.93
2019-02-27T07:55:29.819Z,29.33
2019-02-27T07:57:59.662Z,28.33
2019-02-27T08:00:29.620Z,27.47
2019-02-27T08:03:09.823Z,25.77
2019-02-27T08:05:39.847Z,25.80
2019-02-27T08:08:09.742Z,25.53
2019-02-27T08:10:39.947Z,24.87
2019-02-27T08:13:10.021Z,25.50
2019-02-27T08:15:40.144Z,25.67
2019-02-27T08:18:10.376Z,26.00
2019-02-27T08:20:40.626Z,27.40
2019-02-27T08:23:10.599Z,28.20
2019-02-27T08:25:40.602Z,28.60
2019-02-27T08:28:10.897Z,28.80
2019-02-27T08:30:41.048Z,32.13
2019-02-27T08:33:11.039Z,30.33
2019-02-27T08:35:41.003Z,31.17
2019-02-27T08:38:11.035Z,32.17
2019-02-27T08:40:41.145Z,34.47
2019-02-27T08:43:11.447Z,39.70
2019-02-27T08:45:41.493Z,43.53
2019-02-27T08:48:11.550Z,41.57
2019-02-27T08:50:41.705Z,38.23
2019-02-27T08:53:16.288Z,34.37
2019-02-27T08:55:46.369Z,33.47
2019-02-27T08:58:16.575Z,32.47
2019-02-27T09:00:47.473Z,31.80
2019-02-27T09:03:20.640Z,30.57
2019-02-27T09:05:51.086Z,35.90
2019-02-27T09:08:22.037Z,39.57
2019-02-27T09:10:52.015Z,39.80
2019-02-27T09:13:25.339Z,40.37
2019-02-27T09:15:55.413Z,41.70
2019-02-27T09:18:25.306Z,41.70
2019-02-27T09:20:55.347Z,43.60
2019-02-27T09:23:25.546Z,42.70
2019-02-27T09:25:57.487Z,43.43
2019-02-27T09:28:28.673Z,44.17
2019-02-27T09:31:04.184Z,42.80
2019-02-27T09:33:38.780Z,43.57
2019-02-27T09:36:08.044Z,42.23
2019-02-27T09:38:38.375Z,43.93
2019-02-27T09:41:12.128Z,43.93
2019-02-27T09:43:43.224Z,43.97
2019-02-27T09:46:13.381Z,43.77
2019-02-27T09:48:43.718Z,44.77
2019-02-27T09:51:13.823Z,45.13
2019-02-27T09:53:44.055Z,44.60
2019-02-27T09:56:15.436Z,44.90
2019-02-27T09:58:47.013Z,42.97
2019-02-27T10:01:18.267Z,43.87
2019-02-27T10:03:48.309Z,42.97
2019-02-27T10:06:18.467Z,43.40
2019-02-27T10:08:48.704Z,40.60
2019-02-27T10:11:20.691Z,41.97
2019-02-27T10:13:50.282Z,40.43
2019-02-27T10:16:21.469Z,42.97
2019-02-27T10:18:55.630Z,41.73
2019-02-27T10:21:24.457Z,41.87
2019-02-27T10:23:54.463Z,41.93
2019-02-27T10:26:24.433Z,44.20
2019-02-27T10:28:54.495Z,40.53
2019-02-27T10:31:25.904Z,44.57
2019-02-27T10:33:55.995Z,43.73
2019-02-27T10:36:28.200Z,44.13
2019-02-27T10:39:01.646Z,45.10
2019-02-27T10:41:33.952Z,44.97
2019-02-27T10:44:04.337Z,42.27
2019-02-27T10:46:34.946Z,43.30
2019-02-27T10:49:05.147Z,44.10
2019-02-27T10:51:35.112Z,41.40
2019-02-27T10:54:05.568Z,41.03
2019-02-27T10:56:36.115Z,38.85
2019-02-27T10:59:07.423Z,37.55
2019-02-27T11:01:40.351Z,37.73
2019-02-27T11:04:12.415Z,34.40
2019-02-27T11:06:45.027Z,31.43
2019-02-27T11:09:17.667Z,32.87
2019-02-27T11:11:51.513Z,33.03
2019-02-27T11:14:21.293Z,29.37
2019-02-27T11:16:51.317Z,31.83
2019-02-27T11:19:21.221Z,29.80
2019-02-27T11:21:51.191Z,29.40
2019-02-27T11:24:24.810Z,28.93
2019-02-27T11:26:56.917Z,28.03
2019-02-27T11:29:28.957Z,25.90
2019-02-27T11:32:01.302Z,23.47
2019-02-27T11:34:31.225Z,23.50
2019-02-27T11:37:04.262Z,24.20
2019-02-27T11:39:35.477Z,24.77
2019-02-27T11:42:07.472Z,26.10
2019-02-27T11:44:38.770Z,23.13
2019-02-27T11:47:15.363Z,21.13
2019-02-27T11:49:46.015Z,21.77
2019-02-27T11:52:17.882Z,24.20
2019-02-27T11:54:48.229Z,19.07
2019-02-27T11:57:19.649Z,17.80
2019-02-27T11:59:50.050Z,23.43
2019-02-27T12:02:28.595Z,21.60
2019-02-27T12:04:55.287Z,22.30
2019-02-27T12:07:24.739Z,19.20
2019-02-27T12:09:56.276Z,19.17
2019-02-27T12:12:26.580Z,18.70
2019-02-27T12:14:58.844Z,19.40
2019-02-27T12:17:31.859Z,21.80
2019-02-27T12:20:03.659Z,20.60
2019-02-27T12:22:39.460Z,21.27
2019-02-27T12:25:13.012Z,22.13
2019-02-27T12:27:49.067Z,24.07
2019-02-27T12:30:17.223Z,22.70
2019-02-27T12:32:47.996Z,24.77
2019-02-27T12:35:21.627Z,23.75
2019-02-27T12:37:51.902Z,19.90
2019-02-27T12:40:24.933Z,22.52
2019-02-27T12:42:56.260Z,23.05
2019-02-27T12:45:36.339Z,22.65
2019-02-27T12:48:12.620Z,22.60
2019-02-27T12:50:44.783Z,21.33
2019-02-27T12:59:22.691Z,22.80
2019-02-27T13:01:58.499Z,24.27
2019-02-27T13:04:33.131Z,23.83
2019-02-27T13:07:05.460Z,23.70
2019-02-27T13:09:35.828Z,24.00
2019-02-27T13:12:09.139Z,24.77
2019-02-27T13:14:39.499Z,25.53
2019-02-27T13:17:09.821Z,25.53
2019-02-27T13:19:40.461Z,27.10
2019-02-27T13:22:11.460Z,27.13
2019-02-27T13:24:47.100Z,25.67
2019-02-27T13:27:26.860Z,24.13
2019-02-27T13:30:09.340Z,26.40
2019-02-27T13:32:42.780Z,26.77
2019-02-27T13:35:13.620Z,28.07
2019-02-27T13:37:48.104Z,29.17
2019-02-27T13:40:26.740Z,30.07
2019-02-27T13:42:57.103Z,29.73
2019-02-27T13:45:30.620Z,29.87
2019-02-27T13:48:04.974Z,29.07
2019-02-27T13:50:33.743Z,26.87
2019-02-27T13:53:38.908Z,28.30
2019-02-27T13:55:51.893Z,28.67
2019-02-27T13:58:27.139Z,29.23
2019-02-27T14:01:06.419Z,30.00
2019-02-27T14:07:24.183Z,29.63
2019-02-27T14:09:13.253Z,29.53
2019-02-27T14:11:44.493Z,30.47
2019-02-27T14:14:19.100Z,28.57
2019-02-27T14:16:51.211Z,29.90
2019-02-27T14:19:23.885Z,31.20
2019-02-27T14:21:56.080Z,30.43
2019-02-27T14:24:27.575Z,31.20
2019-02-27T14:26:58.021Z,31.57
2019-02-27T14:29:29.875Z,31.10
2019-02-27T14:32:24.130Z,30.93
2019-02-27T14:34:51.421Z,29.60
2019-02-27T14:37:22.211Z,30.90
2019-02-27T14:39:56.544Z,30.77
2019-02-27T14:42:27.811Z,31.33
2019-02-27T14:45:03.260Z,32.43
2019-02-27T14:47:33.132Z,32.60
2019-02-27T14:53:06.643Z,32.67
2019-02-27T14:55:37.431Z,34.67
2019-02-27T14:58:07.902Z,35.27
2019-02-27T15:00:41.205Z,33.70
2019-02-27T15:03:16.140Z,32.93
2019-02-27T15:05:46.734Z,33.87
2019-02-27T15:08:33.750Z,34.60
2019-02-27T15:11:06.060Z,32.93
2019-02-27T15:13:36.890Z,31.90
2019-02-27T15:16:15.585Z,30.53
2019-02-27T15:18:49.380Z,31.60
2019-02-27T15:21:20.935Z,30.03
2019-02-27T15:24:01.356Z,30.03
2019-02-27T15:26:32.524Z,28.93
2019-02-27T15:29:03.133Z,28.00
2019-02-27T15:31:35.344Z,28.40
2019-02-27T15:34:05.740Z,29.17
2019-02-27T15:36:38.779Z,27.97
2019-02-27T15:39:10.539Z,24.80
2019-02-27T15:41:42.531Z,24.00
2019-02-27T15:44:13.774Z,23.73
2019-02-27T15:46:44.612Z,23.17
2019-02-27T15:49:15.118Z,22.13
2019-02-27T15:51:46.330Z,23.57
2019-02-27T15:54:17.820Z,24.50
2019-02-27T15:56:48.341Z,23.30
2019-02-27T15:59:19.300Z,22.67
2019-02-27T16:01:50.259Z,23.20
2019-02-27T16:04:22.260Z,22.73
2019-02-27T16:06:52.823Z,23.87
2019-02-27T16:09:23.691Z,23.50
2019-02-27T16:11:54.339Z,23.97
2019-02-27T16:14:25.660Z,24.27
2019-02-27T16:16:57.572Z,23.20
2019-02-27T16:19:31.100Z,22.57
2019-02-27T16:22:01.700Z,22.50
2019-02-27T16:24:32.019Z,22.47
2019-02-27T16:27:02.459Z,23.20
2019-02-27T16:29:32.932Z,21.97
2019-02-27T16:32:03.463Z,22.43
2019-02-27T16:34:34.326Z,22.00
2019-02-27T16:37:06.060Z,21.80
2019-02-27T16:39:41.602Z,22.60
2019-02-27T16:42:10.693Z,22.43
2019-02-27T16:44:42.740Z,21.87
2019-02-27T16:47:19.605Z,21.63
2019-02-27T16:49:50.427Z,23.03
2019-02-27T16:52:21.211Z,21.97
2019-02-27T16:55:02.377Z,21.30
2019-02-27T16:57:34.163Z,22.43
2019-02-27T17:00:08.113Z,23.17
2019-02-27T17:02:48.062Z,22.40
2019-02-27T17:05:29.404Z,25.97
2019-02-27T17:08:02.689Z,23.83
2019-02-27T17:10:36.260Z,25.33
2019-02-27T17:13:14.418Z,25.70
2019-02-27T17:15:44.524Z,27.07
2019-02-27T17:18:24.662Z,27.70
2019-02-27T17:20:52.820Z,27.07
2019-02-27T17:23:27.902Z,27.53
2019-02-27T17:26:03.427Z,27.57
2019-02-27T17:28:31.463Z,28.30
2019-02-27T17:31:05.318Z,27.70
2019-02-27T17:33:37.921Z,27.33
2019-02-27T17:36:09.980Z,28.73
2019-02-27T17:38:40.224Z,27.77
2019-02-27T17:41:12.700Z,27.37
2019-02-27T17:43:45.571Z,27.67
2019-02-27T17:46:20.787Z,27.17
2019-02-27T17:48:51.500Z,25.83
2019-02-27T17:51:22.771Z,26.03
2019-02-27T17:53:55.087Z,27.23
2019-02-27T17:56:26.660Z,26.60
2019-02-27T17:58:58.251Z,26.50
2019-02-27T18:01:29.180Z,26.67
2019-02-27T18:04:01.891Z,26.20
2019-02-27T18:06:37.381Z,27.13
2019-02-27T18:09:12.011Z,26.93
2019-02-27T18:11:43.131Z,28.50
2019-02-27T18:14:14.620Z,26.63
2019-02-27T18:16:46.925Z,27.60
2019-02-27T18:19:20.248Z,25.27
2019-02-27T18:21:50.703Z,25.53
2019-02-27T18:24:21.260Z,25.13
2019-02-27T18:26:52.140Z,26.27
2019-02-27T18:29:22.691Z,26.10
2019-02-27T18:31:53.180Z,25.27
2019-02-27T18:34:25.029Z,24.20
2019-02-27T18:36:55.660Z,25.37
2019-02-27T18:39:26.220Z,27.70
2019-02-27T18:41:57.299Z,28.53
2019-02-27T18:44:28.500Z,27.90
2019-02-27T18:47:01.785Z,28.57
2019-02-27T18:49:32.540Z,28.40
2019-02-27T18:52:06.360Z,28.50
2019-02-27T18:54:35.142Z,28.57
2019-02-27T18:57:05.700Z,29.27
2019-02-27T18:59:36.301Z,29.17
2019-02-27T19:02:07.500Z,30.00
2019-02-27T19:04:39.611Z,30.70
2019-02-27T19:07:10.741Z,30.57
2019-02-27T19:09:41.540Z,32.00
2019-02-27T19:12:12.523Z,33.40
2019-02-27T19:14:45.546Z,31.80
2019-02-27T19:17:16.131Z,31.17
2019-02-27T19:19:48.980Z,32.90
2019-02-27T19:22:20.291Z,34.37
2019-02-27T19:24:51.460Z,34.33
2019-02-27T19:27:24.060Z,33.10
2019-02-27T19:29:58.276Z,33.63
2019-02-27T19:32:29.772Z,33.60
2019-02-27T19:35:01.546Z,34.37
2019-02-27T19:37:36.403Z,33.93
2019-02-27T19:40:13.462Z,35.33
2019-02-27T19:43:01.543Z,36.77
2019-02-27T19:45:36.663Z,37.10
2019-02-27T19:48:08.301Z,37.77
2019-02-27T19:50:45.531Z,39.20
2019-02-27T19:53:23.221Z,39.60
2019-02-27T19:55:54.208Z,40.60
2019-02-27T19:58:32.452Z,40.30
2019-02-27T20:01:09.111Z,43.17
2019-02-27T20:03:40.084Z,42.90
2019-02-27T20:06:11.348Z,42.23
2019-02-27T20:08:45.407Z,42.07
2019-02-27T20:11:15.648Z,43.67
2019-02-27T20:13:47.451Z,38.40
2019-02-27T20:16:20.721Z,39.27
2019-02-27T20:18:54.759Z,37.40
2019-02-27T20:21:25.342Z,39.60
2019-02-27T20:24:01.191Z,39.47
2019-02-27T20:26:29.582Z,39.33
2019-02-27T20:29:00.455Z,43.77
2019-02-27T20:31:31.461Z,43.47
2019-02-27T20:34:03.616Z,45.10
2019-02-27T20:36:34.260Z,45.37
2019-02-27T20:39:06.621Z,44.47
2019-02-27T20:41:40.935Z,44.87
2019-02-27T20:44:09.539Z,44.87
2019-02-27T20:46:41.931Z,46.07
2019-02-27T20:49:14.864Z,49.50
2019-02-27T20:51:45.573Z,50.50
2019-02-27T20:54:24.213Z,49.70
2019-02-27T20:57:01.891Z,49.60
2019-02-27T20:59:35.040Z,48.83
2019-02-27T21:02:07.308Z,49.93
2019-02-27T21:04:44.860Z,48.83
2019-02-27T21:07:22.289Z,48.43
2019-02-27T21:09:54.888Z,46.30
2019-02-27T21:12:29.572Z,46.80
2019-02-27T21:15:10.700Z,43.87
2019-02-27T21:17:45.134Z,43.50
2019-02-27T21:20:22.018Z,40.53
2019-02-27T21:23:00.254Z,40.67
2019-02-27T21:25:38.382Z,40.10
2019-02-27T21:28:21.003Z,39.50
2019-02-27T21:30:51.809Z,37.67
2019-02-27T21:33:22.247Z,40.33
2019-02-27T21:35:54.972Z,40.80
2019-02-27T21:38:36.700Z,41.70
2019-02-27T21:41:21.535Z,42.30
2019-02-27T21:43:57.255Z,41.10
2019-02-27T21:46:29.675Z,44.40
2019-02-27T21:49:11.691Z,43.10
2019-02-27T21:51:48.066Z,41.90
2019-02-27T21:54:19.137Z,41.63
2019-02-27T21:56:55.163Z,42.73
2019-02-27T21:59:29.352Z,41.87
2019-02-27T22:02:02.332Z,41.30
2019-02-27T22:04:34.358Z,40.40
2019-02-27T22:07:05.564Z,39.83
2019-02-27T22:09:36.847Z,40.53
2019-02-27T22:12:11.823Z,38.60
2019-02-27T22:14:45.317Z,37.90
2019-02-27T22:17:16.064Z,39.23
2019-02-27T22:19:50.412Z,38.27
2019-02-27T22:22:19.559Z,37.70
2019-02-27T22:24:55.535Z,38.17
2019-02-27T22:27:27.288Z,36.40
2019-02-27T22:29:59.777Z,36.33
2019-02-27T22:32:37.781Z,34.37
2019-02-27T22:35:12.979Z,35.80
2019-02-27T22:37:44.401Z,35.47
2019-02-27T22:40:23.983Z,36.23
2019-02-27T22:42:57.356Z,34.93
2019-02-27T22:45:29.869Z,35.20
2019-02-27T22:48:00.079Z,34.27
2019-02-27T22:50:31.195Z,35.90
2019-02-27T22:53:03.244Z,34.83
2019-02-27T22:55:36.292Z,33.17
2019-02-27T22:58:07.185Z,32.60
2019-02-27T23:00:56.040Z,34.03
2019-02-27T23:03:37.437Z,32.17
2019-02-27T23:06:13.840Z,32.40
2019-02-27T23:08:45.443Z,32.10
2019-02-27T23:11:18.269Z,33.10
2019-02-27T23:13:50.725Z,34.60
2019-02-27T23:16:21.841Z,41.97
2019-02-27T23:18:52.446Z,42.30
2019-02-27T23:21:23.331Z,42.53
2019-02-27T23:23:53.564Z,44.87
2019-02-27T23:26:25.192Z,44.40
2019-02-27T23:28:55.270Z,42.57
2019-02-27T23:31:25.123Z,39.07
2019-02-27T23:33:55.035Z,36.90
2019-02-27T23:36:24.989Z,34.87
2019-02-27T23:38:54.963Z,34.87
2019-02-27T23:41:24.995Z,35.10
2019-02-27T23:43:55.949Z,35.27
2019-02-27T23:46:27.650Z,37.17
2019-02-27T23:48:57.648Z,38.27
2019-02-27T23:51:27.494Z,44.20
2019-02-27T23:54:01.212Z,41.87
2019-02-27T23:56:31.522Z,47.10
2019-02-27T23:59:02.704Z,44.30
